Terminal Aerodrome Forecast
Issued by NWS

Home | Current Version | Previous Version | Text Only | Print | Product List | Glossary On
Versions: 1 2 3 4 5 6 7 8 9 10 11 12 13 14
000
FTUS43 KDDC 262338
TAFHYS
TAF
KHYS 262338Z 2700/2724 08007KT P6SM FEW250
     FM270500 13008KT P6SM VCTS SCT250CB
     FM271500 34012KT P6SM BKN015=

USA.gov is the U.S. government's official web portal to all federal, state and local government web resources and services.